sensor_id;sensor_type;location;lat;lon;timestamp;P1;durP1;ratioP1;P2;durP2;ratioP2
3000;SDS011;1510;51.072;6.678;2023-11-19T00:00:16;1148.10;;;999.90;;
3000;SDS011;1510;51.072;6.678;2023-11-19T00:02:43;1200.43;;;999.90;;
3000;SDS011;1510;51.072;6.678;2023-11-19T00:05:10;1181.63;;;999.90;;
3000;SDS011;1510;51.072;6.678;2023-11-19T00:07:39;1159.73;;;999.90;;
3000;SDS011;1510;51.072;6.678;2023-11-19T00:10:07;1170.33;;;999.90;;
3000;SDS011;1510;51.072;6.678;2023-11-19T00:12:35;1238.30;;;999.90;;
3000;SDS011;1510;51.072;6.678;2023-11-19T00:15:02;1166.37;;;999.90;;
3000;SDS011;1510;51.072;6.678;2023-11-19T00:17:30;1154.00;;;999.90;;
3000;SDS011;1510;51.072;6.678;2023-11-19T00:19:56;1137.40;;;999.90;;
3000;SDS011;1510;51.072;6.678;2023-11-19T00:22:23;1124.07;;;994.77;;
3000;SDS011;1510;51.072;6.678;2023-11-19T00:24:52;1116.07;;;983.80;;
3000;SDS011;1510;51.072;6.678;2023-11-19T00:27:19;1111.23;;;978.77;;
3000;SDS011;1510;51.072;6.678;2023-11-19T00:29:46;1093.47;;;967.20;;
3000;SDS011;1510;51.072;6.678;2023-11-19T00:35:04;1082.93;;;948.57;;
3000;SDS011;1510;51.072;6.678;2023-11-19T00:37:32;1062.83;;;936.33;;
3000;SDS011;1510;51.072;6.678;2023-11-19T00:40:00;1121.00;;;999.90;;
3000;SDS011;1510;51.072;6.678;2023-11-19T00:42:30;1136.40;;;999.90;;
3000;SDS011;1510;51.072;6.678;2023-11-19T00:44:57;1118.07;;;999.30;;
3000;SDS011;1510;51.072;6.678;2023-11-19T00:47:24;1092.83;;;976.60;;
3000;SDS011;1510;51.072;6.678;2023-11-19T00:49:50;1094.87;;;979.47;;
3000;SDS011;1510;51.072;6.678;2023-11-19T00:52:17;1087.40;;;972.33;;
3000;SDS011;1510;51.072;6.678;2023-11-19T00:54:45;1065.80;;;951.93;;
3000;SDS011;1510;51.072;6.678;2023-11-19T00:57:13;1041.90;;;929.10;;
3000;SDS011;1510;51.072;6.678;2023-11-19T00:59:41;1049.53;;;937.30;;
3000;SDS011;1510;51.072;6.678;2023-11-19T01:02:08;1038.20;;;926.07;;
3000;SDS011;1510;51.072;6.678;2023-11-19T01:04:35;1046.70;;;936.40;;
3000;SDS011;1510;51.072;6.678;2023-11-19T01:07:03;1040.80;;;930.97;;
3000;SDS011;1510;51.072;6.678;2023-11-19T01:09:30;1033.43;;;924.33;;
3000;SDS011;1510;51.072;6.678;2023-11-19T01:11:59;1034.73;;;926.07;;
3000;SDS011;1510;51.072;6.678;2023-11-19T01:14:28;1023.30;;;915.00;;
3000;SDS011;1510;51.072;6.678;2023-11-19T01:16:55;1026.23;;;918.93;;
3000;SDS011;1510;51.072;6.678;2023-11-19T01:19:22;1026.40;;;918.47;;
3000;SDS011;1510;51.072;6.678;2023-11-19T01:21:49;1020.73;;;912.47;;
3000;SDS011;1510;51.072;6.678;2023-11-19T01:24:16;1030.30;;;921.13;;
3000;SDS011;1510;51.072;6.678;2023-11-19T01:26:43;1031.30;;;921.90;;
3000;SDS011;1510;51.072;6.678;2023-11-19T01:29:10;1046.27;;;935.27;;
3000;SDS011;1510;51.072;6.678;2023-11-19T01:31:40;1055.57;;;942.90;;
3000;SDS011;1510;51.072;6.678;2023-11-19T01:34:07;1027.33;;;915.53;;
3000;SDS011;1510;51.072;6.678;2023-11-19T01:36:34;1026.30;;;915.20;;
3000;SDS011;1510;51.072;6.678;2023-11-19T01:39:01;1018.27;;;905.77;;
3000;SDS011;1510;51.072;6.678;2023-11-19T01:41:29;1013.87;;;902.50;;
3000;SDS011;1510;51.072;6.678;2023-11-19T01:43:59;1010.63;;;899.27;;
3000;SDS011;1510;51.072;6.678;2023-11-19T01:46:26;1045.27;;;935.20;;
3000;SDS011;1510;51.072;6.678;2023-11-19T01:48:55;1043.53;;;934.33;;
3000;SDS011;1510;51.072;6.678;2023-11-19T01:51:22;1036.37;;;927.53;;
3000;SDS011;1510;51.072;6.678;2023-11-19T01:53:50;1006.57;;;900.57;;
3000;SDS011;1510;51.072;6.678;2023-11-19T01:56:17;996.83;;;892.20;;
3000;SDS011;1510;51.072;6.678;2023-11-19T01:58:44;993.40;;;890.80;;
3000;SDS011;1510;51.072;6.678;2023-11-19T02:01:12;979.33;;;878.73;;
3000;SDS011;1510;51.072;6.678;2023-11-19T02:03:39;974.10;;;875.87;;
3000;SDS011;1510;51.072;6.678;2023-11-19T02:06:08;955.67;;;859.77;;
3000;SDS011;1510;51.072;6.678;2023-11-19T02:08:35;953.03;;;859.73;;
3000;SDS011;1510;51.072;6.678;2023-11-19T02:11:03;946.37;;;854.30;;
3000;SDS011;1510;51.072;6.678;2023-11-19T02:13:32;942.77;;;851.80;;
3000;SDS011;1510;51.072;6.678;2023-11-19T02:16:01;938.17;;;848.37;;
3000;SDS011;1510;51.072;6.678;2023-11-19T02:18:28;926.97;;;838.30;;
3000;SDS011;1510;51.072;6.678;2023-11-19T02:20:55;929.57;;;840.53;;
3000;SDS011;1510;51.072;6.678;2023-11-19T02:23:25;937.17;;;848.90;;
3000;SDS011;1510;51.072;6.678;2023-11-19T02:25:56;930.53;;;843.00;;
3000;SDS011;1510;51.072;6.678;2023-11-19T02:28:31;937.67;;;851.00;;
3000;SDS011;1510;51.072;6.678;2023-11-19T02:30:59;938.43;;;852.73;;
3000;SDS011;1510;51.072;6.678;2023-11-19T02:33:26;941.40;;;855.50;;
3000;SDS011;1510;51.072;6.678;2023-11-19T02:35:53;943.37;;;857.80;;
3000;SDS011;1510;51.072;6.678;2023-11-19T02:38:20;957.80;;;871.23;;
3000;SDS011;1510;51.072;6.678;2023-11-19T02:40:47;958.77;;;869.83;;
3000;SDS011;1510;51.072;6.678;2023-11-19T02:43:15;971.47;;;881.50;;
3000;SDS011;1510;51.072;6.678;2023-11-19T02:45:44;955.30;;;865.03;;
3000;SDS011;1510;51.072;6.678;2023-11-19T02:48:11;970.77;;;881.50;;
3000;SDS011;1510;51.072;6.678;2023-11-19T02:50:39;962.23;;;872.40;;
3000;SDS011;1510;51.072;6.678;2023-11-19T02:53:06;974.40;;;884.70;;
3000;SDS011;1510;51.072;6.678;2023-11-19T02:55:33;967.47;;;878.30;;
3000;SDS011;1510;51.072;6.678;2023-11-19T02:58:03;965.43;;;876.80;;
3000;SDS011;1510;51.072;6.678;2023-11-19T03:00:34;964.67;;;877.07;;
3000;SDS011;1510;51.072;6.678;2023-11-19T03:03:08;945.47;;;858.97;;
3000;SDS011;1510;51.072;6.678;2023-11-19T03:05:45;951.67;;;866.97;;
3000;SDS011;1510;51.072;6.678;2023-11-19T03:08:13;949.10;;;865.77;;
3000;SDS011;1510;51.072;6.678;2023-11-19T03:10:40;945.40;;;863.73;;
3000;SDS011;1510;51.072;6.678;2023-11-19T03:13:09;942.53;;;862.73;;
3000;SDS011;1510;51.072;6.678;2023-11-19T03:15:38;947.67;;;869.70;;
3000;SDS011;1510;51.072;6.678;2023-11-19T03:18:05;941.50;;;867.53;;
3000;SDS011;1510;51.072;6.678;2023-11-19T03:20:34;943.93;;;872.73;;
3000;SDS011;1510;51.072;6.678;2023-11-19T03:23:01;944.20;;;872.90;;
3000;SDS011;1510;51.072;6.678;2023-11-19T03:25:27;925.87;;;859.47;;
3000;SDS011;1510;51.072;6.678;2023-11-19T03:27:58;924.20;;;860.77;;
3000;SDS011;1510;51.072;6.678;2023-11-19T03:30:26;912.57;;;853.97;;
3000;SDS011;1510;51.072;6.678;2023-11-19T03:32:53;919.17;;;861.63;;
3000;SDS011;1510;51.072;6.678;2023-11-19T03:35:20;926.40;;;866.40;;
3000;SDS011;1510;51.072;6.678;2023-11-19T03:37:48;903.63;;;847.43;;
3000;SDS011;1510;51.072;6.678;2023-11-19T03:40:15;861.23;;;810.90;;
3000;SDS011;1510;51.072;6.678;2023-11-19T03:42:44;860.53;;;811.53;;
3000;SDS011;1510;51.072;6.678;2023-11-19T03:45:11;861.60;;;813.27;;
3000;SDS011;1510;51.072;6.678;2023-11-19T03:47:38;837.17;;;791.83;;
3000;SDS011;1510;51.072;6.678;2023-11-19T03:50:05;863.53;;;814.83;;
3000;SDS011;1510;51.072;6.678;2023-11-19T03:52:33;867.63;;;818.33;;
3000;SDS011;1510;51.072;6.678;2023-11-19T03:55:02;872.57;;;823.30;;
3000;SDS011;1510;51.072;6.678;2023-11-19T03:57:29;871.67;;;819.37;;
3000;SDS011;1510;51.072;6.678;2023-11-19T03:59:56;886.77;;;831.50;;
3000;SDS011;1510;51.072;6.678;2023-11-19T04:02:24;890.43;;;834.20;;
3000;SDS011;1510;51.072;6.678;2023-11-19T04:04:53;903.93;;;846.43;;
3000;SDS011;1510;51.072;6.678;2023-11-19T04:07:20;895.60;;;836.40;;
3000;SDS011;1510;51.072;6.678;2023-11-19T04:09:47;909.50;;;849.10;;
3000;SDS011;1510;51.072;6.678;2023-11-19T04:12:16;915.97;;;852.67;;
3000;SDS011;1510;51.072;6.678;2023-11-19T04:14:42;918.03;;;855.13;;
3000;SDS011;1510;51.072;6.678;2023-11-19T04:17:10;916.13;;;854.30;;
3000;SDS011;1510;51.072;6.678;2023-11-19T04:19:37;917.33;;;855.93;;
3000;SDS011;1510;51.072;6.678;2023-11-19T04:22:06;922.00;;;860.57;;
3000;SDS011;1510;51.072;6.678;2023-11-19T04:24:33;921.27;;;860.97;;
3000;SDS011;1510;51.072;6.678;2023-11-19T04:27:00;907.70;;;850.93;;
3000;SDS011;1510;51.072;6.678;2023-11-19T04:29:29;905.07;;;849.60;;
3000;SDS011;1510;51.072;6.678;2023-11-19T04:31:57;901.37;;;846.63;;
3000;SDS011;1510;51.072;6.678;2023-11-19T04:34:26;889.00;;;836.40;;
3000;SDS011;1510;51.072;6.678;2023-11-19T04:36:52;885.73;;;834.33;;
3000;SDS011;1510;51.072;6.678;2023-11-19T04:39:20;877.23;;;825.63;;
3000;SDS011;1510;51.072;6.678;2023-11-19T04:41:47;861.83;;;812.27;;
3000;SDS011;1510;51.072;6.678;2023-11-19T04:44:15;860.00;;;811.17;;
3000;SDS011;1510;51.072;6.678;2023-11-19T04:46:44;856.20;;;807.87;;
3000;SDS011;1510;51.072;6.678;2023-11-19T04:49:11;843.53;;;796.70;;
3000;SDS011;1510;51.072;6.678;2023-11-19T04:51:38;859.93;;;811.90;;
3000;SDS011;1510;51.072;6.678;2023-11-19T04:54:06;865.90;;;816.87;;
3000;SDS011;1510;51.072;6.678;2023-11-19T04:56:34;876.20;;;825.40;;
3000;SDS011;1510;51.072;6.678;2023-11-19T04:59:01;877.37;;;826.73;;
3000;SDS011;1510;51.072;6.678;2023-11-19T05:01:28;886.73;;;834.33;;
3000;SDS011;1510;51.072;6.678;2023-11-19T05:03:57;889.83;;;839.30;;
3000;SDS011;1510;51.072;6.678;2023-11-19T05:06:25;892.03;;;839.33;;
3000;SDS011;1510;51.072;6.678;2023-11-19T05:08:54;895.10;;;843.20;;
3000;SDS011;1510;51.072;6.678;2023-11-19T05:11:21;884.47;;;833.63;;
3000;SDS011;1510;51.072;6.678;2023-11-19T05:13:48;833.13;;;787.70;;
3000;SDS011;1510;51.072;6.678;2023-11-19T05:16:15;838.47;;;793.57;;
3000;SDS011;1510;51.072;6.678;2023-11-19T05:18:42;836.47;;;791.97;;
3000;SDS011;1510;51.072;6.678;2023-11-19T05:21:11;798.47;;;757.10;;
3000;SDS011;1510;51.072;6.678;2023-11-19T05:23:38;782.80;;;743.70;;
3000;SDS011;1510;51.072;6.678;2023-11-19T05:26:06;774.07;;;735.13;;
3000;SDS011;1510;51.072;6.678;2023-11-19T05:28:33;769.10;;;731.43;;
3000;SDS011;1510;51.072;6.678;2023-11-19T05:31:00;770.43;;;731.73;;
3000;SDS011;1510;51.072;6.678;2023-11-19T05:33:27;760.77;;;722.87;;
3000;SDS011;1510;51.072;6.678;2023-11-19T05:35:54;775.30;;;735.60;;
3000;SDS011;1510;51.072;6.678;2023-11-19T05:38:23;755.03;;;717.63;;
3000;SDS011;1510;51.072;6.678;2023-11-19T05:40:50;720.47;;;685.77;;
3000;SDS011;1510;51.072;6.678;2023-11-19T05:43:17;719.13;;;684.53;;
3000;SDS011;1510;51.072;6.678;2023-11-19T05:45:44;680.90;;;649.37;;
3000;SDS011;1510;51.072;6.678;2023-11-19T05:48:11;643.77;;;614.60;;
3000;SDS011;1510;51.072;6.678;2023-11-19T05:50:38;648.30;;;619.07;;
3000;SDS011;1510;51.072;6.678;2023-11-19T05:53:05;651.83;;;623.07;;
3000;SDS011;1510;51.072;6.678;2023-11-19T05:55:36;590.57;;;565.47;;
3000;SDS011;1510;51.072;6.678;2023-11-19T05:58:10;558.93;;;534.73;;
3000;SDS011;1510;51.072;6.678;2023-11-19T06:00:38;519.43;;;497.90;;
3000;SDS011;1510;51.072;6.678;2023-11-19T06:03:05;525.23;;;502.43;;
3000;SDS011;1510;51.072;6.678;2023-11-19T06:05:33;426.63;;;410.15;;
3000;SDS011;1510;51.072;6.678;2023-11-19T06:08:00;452.77;;;435.53;;
3000;SDS011;1510;51.072;6.678;2023-11-19T06:10:27;499.07;;;479.70;;
3000;SDS011;1510;51.072;6.678;2023-11-19T06:12:57;501.03;;;481.77;;
3000;SDS011;1510;51.072;6.678;2023-11-19T06:15:25;499.63;;;480.33;;
3000;SDS011;1510;51.072;6.678;2023-11-19T06:17:53;502.53;;;482.87;;
3000;SDS011;1510;51.072;6.678;2023-11-19T06:20:20;487.93;;;468.17;;
3000;SDS011;1510;51.072;6.678;2023-11-19T06:22:47;493.40;;;473.40;;
3000;SDS011;1510;51.072;6.678;2023-11-19T06:25:14;502.00;;;481.87;;
3000;SDS011;1510;51.072;6.678;2023-11-19T06:27:41;495.10;;;475.00;;
3000;SDS011;1510;51.072;6.678;2023-11-19T06:30:10;470.37;;;451.50;;
3000;SDS011;1510;51.072;6.678;2023-11-19T06:32:38;457.93;;;438.70;;
3000;SDS011;1510;51.072;6.678;2023-11-19T06:35:05;445.10;;;427.80;;
3000;SDS011;1510;51.072;6.678;2023-11-19T06:37:32;432.33;;;415.97;;
3000;SDS011;1510;51.072;6.678;2023-11-19T06:39:59;399.20;;;384.70;;
3000;SDS011;1510;51.072;6.678;2023-11-19T06:42:26;391.17;;;376.67;;
3000;SDS011;1510;51.072;6.678;2023-11-19T06:44:53;411.70;;;395.20;;
3000;SDS011;1510;51.072;6.678;2023-11-19T06:47:24;399.73;;;384.87;;
3000;SDS011;1510;51.072;6.678;2023-11-19T06:49:52;424.63;;;408.87;;
3000;SDS011;1510;51.072;6.678;2023-11-19T06:52:19;417.60;;;400.97;;
3000;SDS011;1510;51.072;6.678;2023-11-19T06:54:46;393.50;;;378.60;;
3000;SDS011;1510;51.072;6.678;2023-11-19T06:57:13;389.80;;;375.37;;
3000;SDS011;1510;51.072;6.678;2023-11-19T06:59:40;409.60;;;393.57;;
3000;SDS011;1510;51.072;6.678;2023-11-19T07:02:09;403.50;;;387.17;;
3000;SDS011;1510;51.072;6.678;2023-11-19T07:04:37;383.83;;;369.97;;
3000;SDS011;1510;51.072;6.678;2023-11-19T07:07:04;362.30;;;347.67;;
3000;SDS011;1510;51.072;6.678;2023-11-19T07:09:31;314.40;;;302.40;;
3000;SDS011;1510;51.072;6.678;2023-11-19T07:11:58;269.17;;;259.47;;
3000;SDS011;1510;51.072;6.678;2023-11-19T07:14:26;255.37;;;245.77;;
3000;SDS011;1510;51.072;6.678;2023-11-19T07:16:53;256.07;;;246.30;;
3000;SDS011;1510;51.072;6.678;2023-11-19T07:19:20;280.67;;;269.97;;
3000;SDS011;1510;51.072;6.678;2023-11-19T07:21:49;322.57;;;310.57;;
3000;SDS011;1510;51.072;6.678;2023-11-19T07:24:16;318.20;;;306.70;;
3000;SDS011;1510;51.072;6.678;2023-11-19T07:26:43;331.67;;;319.57;;
3000;SDS011;1510;51.072;6.678;2023-11-19T07:29:10;363.33;;;349.33;;
3000;SDS011;1510;51.072;6.678;2023-11-19T07:31:37;367.30;;;353.47;;
3000;SDS011;1510;51.072;6.678;2023-11-19T07:34:04;369.60;;;355.67;;
3000;SDS011;1510;51.072;6.678;2023-11-19T07:36:31;349.23;;;335.57;;
3000;SDS011;1510;51.072;6.678;2023-11-19T07:39:00;368.70;;;354.73;;
3000;SDS011;1510;51.072;6.678;2023-11-19T07:41:27;337.87;;;325.97;;
3000;SDS011;1510;51.072;6.678;2023-11-19T07:43:54;332.27;;;319.00;;
3000;SDS011;1510;51.072;6.678;2023-11-19T07:46:21;348.57;;;336.00;;
3000;SDS011;1510;51.072;6.678;2023-11-19T07:48:48;370.67;;;357.27;;
3000;SDS011;1510;51.072;6.678;2023-11-19T07:51:15;368.57;;;355.33;;
3000;SDS011;1510;51.072;6.678;2023-11-19T07:53:42;326.40;;;313.40;;
3000;SDS011;1510;51.072;6.678;2023-11-19T07:56:10;311.77;;;300.30;;
3000;SDS011;1510;51.072;6.678;2023-11-19T07:58:37;284.37;;;273.67;;
3000;SDS011;1510;51.072;6.678;2023-11-19T08:01:04;283.33;;;272.93;;
3000;SDS011;1510;51.072;6.678;2023-11-19T08:03:32;275.90;;;266.10;;
3000;SDS011;1510;51.072;6.678;2023-11-19T08:06:00;284.97;;;274.13;;
3000;SDS011;1510;51.072;6.678;2023-11-19T08:08:28;298.23;;;287.00;;
3000;SDS011;1510;51.072;6.678;2023-11-19T08:10:55;303.87;;;292.00;;
3000;SDS011;1510;51.072;6.678;2023-11-19T08:13:23;307.03;;;296.03;;
3000;SDS011;1510;51.072;6.678;2023-11-19T08:15:50;324.03;;;312.03;;
3000;SDS011;1510;51.072;6.678;2023-11-19T08:18:17;279.47;;;269.77;;
3000;SDS011;1510;51.072;6.678;2023-11-19T08:20:44;285.73;;;274.93;;
3000;SDS011;1510;51.072;6.678;2023-11-19T08:23:15;268.90;;;259.03;;
3000;SDS011;1510;51.072;6.678;2023-11-19T08:25:41;258.40;;;248.30;;
3000;SDS011;1510;51.072;6.678;2023-11-19T08:28:09;266.43;;;256.50;;
3000;SDS011;1510;51.072;6.678;2023-11-19T08:30:37;217.97;;;209.53;;
3000;SDS011;1510;51.072;6.678;2023-11-19T08:33:04;212.10;;;203.87;;
3000;SDS011;1510;51.072;6.678;2023-11-19T08:35:32;191.47;;;183.70;;
3000;SDS011;1510;51.072;6.678;2023-11-19T08:37:59;125.90;;;119.83;;
3000;SDS011;1510;51.072;6.678;2023-11-19T08:40:26;105.57;;;100.07;;
3000;SDS011;1510;51.072;6.678;2023-11-19T08:42:54;87.50;;;83.17;;
3000;SDS011;1510;51.072;6.678;2023-11-19T08:45:22;66.87;;;62.47;;
3000;SDS011;1510;51.072;6.678;2023-11-19T08:47:50;74.23;;;69.73;;
3000;SDS011;1510;51.072;6.678;2023-11-19T08:50:17;56.97;;;52.33;;
3000;SDS011;1510;51.072;6.678;2023-11-19T08:52:44;50.20;;;47.03;;
3000;SDS011;1510;51.072;6.678;2023-11-19T08:55:11;40.00;;;36.57;;
3000;SDS011;1510;51.072;6.678;2023-11-19T08:57:38;43.20;;;39.80;;
3000;SDS011;1510;51.072;6.678;2023-11-19T09:00:06;28.43;;;20.20;;
3000;SDS011;1510;51.072;6.678;2023-11-19T09:02:33;26.27;;;13.90;;
3000;SDS011;1510;51.072;6.678;2023-11-19T09:05:01;27.35;;;8.20;;
3000;SDS011;1510;51.072;6.678;2023-11-19T09:07:29;20.97;;;8.63;;
3000;SDS011;1510;51.072;6.678;2023-11-19T09:09:57;15.87;;;8.60;;
3000;SDS011;1510;51.072;6.678;2023-11-19T09:12:24;16.30;;;6.63;;
3000;SDS011;1510;51.072;6.678;2023-11-19T09:14:51;15.80;;;6.43;;
3000;SDS011;1510;51.072;6.678;2023-11-19T09:17:17;21.63;;;7.20;;
3000;SDS011;1510;51.072;6.678;2023-11-19T09:19:45;28.03;;;7.03;;
3000;SDS011;1510;51.072;6.678;2023-11-19T09:22:13;14.90;;;6.37;;
3000;SDS011;1510;51.072;6.678;2023-11-19T09:24:40;23.33;;;6.63;;
3000;SDS011;1510;51.072;6.678;2023-11-19T09:27:09;21.20;;;7.60;;
3000;SDS011;1510;51.072;6.678;2023-11-19T09:29:35;22.20;;;6.50;;
3000;SDS011;1510;51.072;6.678;2023-11-19T09:32:03;18.90;;;7.37;;
3000;SDS011;1510;51.072;6.678;2023-11-19T09:34:30;21.33;;;5.77;;
3000;SDS011;1510;51.072;6.678;2023-11-19T09:36:57;26.73;;;5.57;;
3000;SDS011;1510;51.072;6.678;2023-11-19T09:39:26;18.63;;;6.13;;
3000;SDS011;1510;51.072;6.678;2023-11-19T09:41:52;18.00;;;5.13;;
3000;SDS011;1510;51.072;6.678;2023-11-19T09:44:19;27.23;;;7.93;;
3000;SDS011;1510;51.072;6.678;2023-11-19T09:46:47;22.80;;;5.03;;
3000;SDS011;1510;51.072;6.678;2023-11-19T09:49:14;20.60;;;6.10;;
3000;SDS011;1510;51.072;6.678;2023-11-19T09:51:43;24.77;;;5.20;;
3000;SDS011;1510;51.072;6.678;2023-11-19T09:54:10;21.77;;;6.47;;
3000;SDS011;1510;51.072;6.678;2023-11-19T09:56:39;21.80;;;4.93;;
3000;SDS011;1510;51.072;6.678;2023-11-19T09:59:06;27.87;;;6.13;;
3000;SDS011;1510;51.072;6.678;2023-11-19T10:01:35;31.73;;;4.63;;
3000;SDS011;1510;51.072;6.678;2023-11-19T10:04:03;16.80;;;4.43;;
3000;SDS011;1510;51.072;6.678;2023-11-19T10:06:31;21.93;;;5.43;;
3000;SDS011;1510;51.072;6.678;2023-11-19T10:08:58;22.03;;;5.47;;
3000;SDS011;1510;51.072;6.678;2023-11-19T10:11:25;23.63;;;7.53;;
3000;SDS011;1510;51.072;6.678;2023-11-19T10:13:54;17.83;;;4.77;;
3000;SDS011;1510;51.072;6.678;2023-11-19T10:16:27;28.90;;;6.67;;
3000;SDS011;1510;51.072;6.678;2023-11-19T10:18:56;26.37;;;5.00;;
3000;SDS011;1510;51.072;6.678;2023-11-19T10:21:24;19.70;;;5.83;;
3000;SDS011;1510;51.072;6.678;2023-11-19T10:23:53;25.33;;;5.10;;
3000;SDS011;1510;51.072;6.678;2023-11-19T10:26:22;21.23;;;5.50;;
3000;SDS011;1510;51.072;6.678;2023-11-19T10:28:49;20.53;;;4.60;;
3000;SDS011;1510;51.072;6.678;2023-11-19T10:31:19;26.40;;;5.50;;
3000;SDS011;1510;51.072;6.678;2023-11-19T10:33:49;18.50;;;5.23;;
3000;SDS011;1510;51.072;6.678;2023-11-19T10:36:17;20.53;;;5.03;;
3000;SDS011;1510;51.072;6.678;2023-11-19T10:38:51;16.43;;;6.57;;
3000;SDS011;1510;51.072;6.678;2023-11-19T10:41:29;13.53;;;3.77;;
3000;SDS011;1510;51.072;6.678;2023-11-19T10:43:56;24.87;;;5.23;;
3000;SDS011;1510;51.072;6.678;2023-11-19T10:46:35;17.87;;;4.60;;
3000;SDS011;1510;51.072;6.678;2023-11-19T10:49:04;26.60;;;6.17;;
3000;SDS011;1510;51.072;6.678;2023-11-19T10:51:31;21.47;;;4.90;;
3000;SDS011;1510;51.072;6.678;2023-11-19T10:54:00;18.73;;;3.90;;
3000;SDS011;1510;51.072;6.678;2023-11-19T10:56:30;22.63;;;4.47;;
3000;SDS011;1510;51.072;6.678;2023-11-19T10:58:58;24.50;;;4.60;;
3000;SDS011;1510;51.072;6.678;2023-11-19T11:01:28;21.17;;;4.47;;
3000;SDS011;1510;51.072;6.678;2023-11-19T11:04:14;13.70;;;4.30;;
3000;SDS011;1510;51.072;6.678;2023-11-19T11:06:45;25.23;;;4.47;;
3000;SDS011;1510;51.072;6.678;2023-11-19T11:09:15;14.53;;;4.47;;
3000;SDS011;1510;51.072;6.678;2023-11-19T11:11:44;23.33;;;4.00;;
3000;SDS011;1510;51.072;6.678;2023-11-19T11:14:13;12.63;;;4.07;;
3000;SDS011;1510;51.072;6.678;2023-11-19T11:16:43;16.70;;;3.63;;
3000;SDS011;1510;51.072;6.678;2023-11-19T11:19:12;13.97;;;3.93;;
3000;SDS011;1510;51.072;6.678;2023-11-19T11:21:40;19.90;;;4.23;;
3000;SDS011;1510;51.072;6.678;2023-11-19T11:27:16;17.07;;;3.40;;
3000;SDS011;1510;51.072;6.678;2023-11-19T11:30:07;27.70;;;4.73;;
3000;SDS011;1510;51.072;6.678;2023-11-19T11:32:42;17.53;;;4.63;;
3000;SDS011;1510;51.072;6.678;2023-11-19T11:35:19;21.10;;;4.23;;
3000;SDS011;1510;51.072;6.678;2023-11-19T11:38:01;14.07;;;5.00;;
3000;SDS011;1510;51.072;6.678;2023-11-19T11:40:30;17.07;;;3.67;;
3000;SDS011;1510;51.072;6.678;2023-11-19T11:42:57;17.80;;;3.63;;
3000;SDS011;1510;51.072;6.678;2023-11-19T11:45:34;17.13;;;3.67;;
3000;SDS011;1510;51.072;6.678;2023-11-19T11:48:13;10.73;;;3.20;;
3000;SDS011;1510;51.072;6.678;2023-11-19T11:50:55;18.83;;;4.77;;
3000;SDS011;1510;51.072;6.678;2023-11-19T11:53:23;15.73;;;3.73;;
3000;SDS011;1510;51.072;6.678;2023-11-19T11:55:52;23.30;;;3.90;;
3000;SDS011;1510;51.072;6.678;2023-11-19T11:58:29;16.70;;;4.57;;
3000;SDS011;1510;51.072;6.678;2023-11-19T12:01:03;15.13;;;3.50;;
3000;SDS011;1510;51.072;6.678;2023-11-19T12:03:36;12.70;;;4.00;;
3000;SDS011;1510;51.072;6.678;2023-11-19T12:06:04;21.77;;;5.23;;
3000;SDS011;1510;51.072;6.678;2023-11-19T12:08:32;34.77;;;5.70;;
3000;SDS011;1510;51.072;6.678;2023-11-19T12:11:01;19.17;;;4.00;;
3000;SDS011;1510;51.072;6.678;2023-11-19T12:13:47;13.07;;;3.80;;
3000;SDS011;1510;51.072;6.678;2023-11-19T12:16:21;21.47;;;4.30;;
3000;SDS011;1510;51.072;6.678;2023-11-19T12:18:49;20.87;;;4.60;;
3000;SDS011;1510;51.072;6.678;2023-11-19T12:21:29;14.37;;;3.73;;
3000;SDS011;1510;51.072;6.678;2023-11-19T12:23:59;16.77;;;3.73;;
3000;SDS011;1510;51.072;6.678;2023-11-19T12:26:36;18.63;;;4.53;;
3000;SDS011;1510;51.072;6.678;2023-11-19T12:29:04;17.20;;;4.53;;
3000;SDS011;1510;51.072;6.678;2023-11-19T12:31:32;19.07;;;4.10;;
3000;SDS011;1510;51.072;6.678;2023-11-19T12:34:09;16.40;;;4.20;;
3000;SDS011;1510;51.072;6.678;2023-11-19T12:36:38;17.93;;;4.43;;
3000;SDS011;1510;51.072;6.678;2023-11-19T12:39:06;20.50;;;4.50;;
3000;SDS011;1510;51.072;6.678;2023-11-19T12:41:48;16.83;;;3.20;;
3000;SDS011;1510;51.072;6.678;2023-11-19T12:44:19;17.13;;;6.07;;
3000;SDS011;1510;51.072;6.678;2023-11-19T12:46:46;12.37;;;3.40;;
3000;SDS011;1510;51.072;6.678;2023-11-19T12:49:26;18.27;;;4.93;;
3000;SDS011;1510;51.072;6.678;2023-11-19T12:51:53;13.87;;;4.73;;
3000;SDS011;1510;51.072;6.678;2023-11-19T12:54:20;13.90;;;3.20;;
3000;SDS011;1510;51.072;6.678;2023-11-19T12:56:57;12.50;;;3.00;;
3000;SDS011;1510;51.072;6.678;2023-11-19T12:59:24;11.97;;;3.77;;
3000;SDS011;1510;51.072;6.678;2023-11-19T13:01:55;13.90;;;3.73;;
3000;SDS011;1510;51.072;6.678;2023-11-19T13:04:22;14.37;;;3.70;;
3000;SDS011;1510;51.072;6.678;2023-11-19T13:06:51;14.90;;;3.30;;
3000;SDS011;1510;51.072;6.678;2023-11-19T13:09:23;12.50;;;3.00;;
3000;SDS011;1510;51.072;6.678;2023-11-19T13:11:51;17.92;;;4.30;;
3000;SDS011;1510;51.072;6.678;2023-11-19T13:14:18;11.23;;;3.90;;
3000;SDS011;1510;51.072;6.678;2023-11-19T13:16:46;21.67;;;5.10;;
3000;SDS011;1510;51.072;6.678;2023-11-19T13:19:13;18.13;;;4.73;;
3000;SDS011;1510;51.072;6.678;2023-11-19T13:21:41;11.83;;;3.80;;
3000;SDS011;1510;51.072;6.678;2023-11-19T13:24:12;22.73;;;4.80;;
3000;SDS011;1510;51.072;6.678;2023-11-19T13:26:39;16.37;;;4.00;;
3000;SDS011;1510;51.072;6.678;2023-11-19T13:29:06;22.73;;;5.03;;
3000;SDS011;1510;51.072;6.678;2023-11-19T13:31:35;20.10;;;5.00;;
3000;SDS011;1510;51.072;6.678;2023-11-19T13:34:02;16.20;;;4.93;;
3000;SDS011;1510;51.072;6.678;2023-11-19T13:36:29;18.77;;;5.13;;
3000;SDS011;1510;51.072;6.678;2023-11-19T13:38:56;19.33;;;3.77;;
3000;SDS011;1510;51.072;6.678;2023-11-19T13:41:25;21.50;;;5.30;;
3000;SDS011;1510;51.072;6.678;2023-11-19T13:43:52;18.70;;;4.53;;
3000;SDS011;1510;51.072;6.678;2023-11-19T13:46:20;21.27;;;4.37;;
3000;SDS011;1510;51.072;6.678;2023-11-19T13:48:47;22.00;;;4.30;;
3000;SDS011;1510;51.072;6.678;2023-11-19T13:51:15;19.67;;;4.40;;
3000;SDS011;1510;51.072;6.678;2023-11-19T13:53:42;20.07;;;4.47;;
3000;SDS011;1510;51.072;6.678;2023-11-19T13:56:09;21.53;;;4.37;;
3000;SDS011;1510;51.072;6.678;2023-11-19T13:58:37;30.67;;;8.30;;
3000;SDS011;1510;51.072;6.678;2023-11-19T14:01:05;17.00;;;4.60;;
3000;SDS011;1510;51.072;6.678;2023-11-19T14:03:32;17.53;;;4.73;;
3000;SDS011;1510;51.072;6.678;2023-11-19T14:05:59;19.83;;;4.60;;
3000;SDS011;1510;51.072;6.678;2023-11-19T14:08:26;19.13;;;3.80;;
3000;SDS011;1510;51.072;6.678;2023-11-19T14:10:53;16.33;;;4.97;;
3000;SDS011;1510;51.072;6.678;2023-11-19T14:13:21;18.00;;;4.00;;
3000;SDS011;1510;51.072;6.678;2023-11-19T14:15:50;11.67;;;3.93;;
3000;SDS011;1510;51.072;6.678;2023-11-19T14:18:17;19.37;;;4.40;;
3000;SDS011;1510;51.072;6.678;2023-11-19T14:20:44;27.50;;;4.73;;
3000;SDS011;1510;51.072;6.678;2023-11-19T14:23:11;14.90;;;4.40;;
3000;SDS011;1510;51.072;6.678;2023-11-19T14:25:38;18.03;;;4.67;;
3000;SDS011;1510;51.072;6.678;2023-11-19T14:28:05;22.27;;;4.50;;
3000;SDS011;1510;51.072;6.678;2023-11-19T14:30:32;11.50;;;2.93;;
3000;SDS011;1510;51.072;6.678;2023-11-19T14:33:01;17.53;;;3.63;;
3000;SDS011;1510;51.072;6.678;2023-11-19T14:35:28;14.90;;;3.00;;
3000;SDS011;1510;51.072;6.678;2023-11-19T14:37:57;18.00;;;4.53;;
3000;SDS011;1510;51.072;6.678;2023-11-19T14:40:24;13.17;;;3.83;;
3000;SDS011;1510;51.072;6.678;2023-11-19T14:42:51;13.93;;;3.53;;
3000;SDS011;1510;51.072;6.678;2023-11-19T14:45:18;16.83;;;4.30;;
3000;SDS011;1510;51.072;6.678;2023-11-19T14:47:45;13.80;;;3.50;;